sensor_id;sensor_type;location;lat;lon;timestamp;P1;durP1;ratioP1;P2;durP2;ratioP2
70487;SDS011;57976;48.174;16.370;2023-08-31T00:00:24;4.60;;;1.80;;
70487;SDS011;57976;48.174;16.370;2023-08-31T00:02:29;4.70;;;2.00;;
70487;SDS011;57976;48.174;16.370;2023-08-31T00:04:35;4.80;;;1.90;;
70487;SDS011;57976;48.174;16.370;2023-08-31T00:06:40;4.80;;;1.70;;
70487;SDS011;57976;48.174;16.370;2023-08-31T00:08:45;4.70;;;1.90;;
70487;SDS011;57976;48.174;16.370;2023-08-31T00:10:55;4.60;;;1.80;;
70487;SDS011;57976;48.174;16.370;2023-08-31T00:13:01;4.70;;;1.80;;
70487;SDS011;57976;48.174;16.370;2023-08-31T00:15:08;4.90;;;1.80;;
70487;SDS011;57976;48.174;16.370;2023-08-31T00:17:14;4.60;;;1.80;;
70487;SDS011;57976;48.174;16.370;2023-08-31T00:19:19;4.40;;;1.50;;
70487;SDS011;57976;48.174;16.370;2023-08-31T00:21:24;5.70;;;1.90;;
70487;SDS011;57976;48.174;16.370;2023-08-31T00:23:29;5.20;;;1.80;;
70487;SDS011;57976;48.174;16.370;2023-08-31T00:25:34;6.00;;;1.70;;
70487;SDS011;57976;48.174;16.370;2023-08-31T00:27:39;3.70;;;1.60;;
70487;SDS011;57976;48.174;16.370;2023-08-31T00:29:44;4.60;;;1.60;;
70487;SDS011;57976;48.174;16.370;2023-08-31T00:31:49;4.30;;;1.70;;
70487;SDS011;57976;48.174;16.370;2023-08-31T00:33:54;4.20;;;1.90;;
70487;SDS011;57976;48.174;16.370;2023-08-31T00:36:00;4.00;;;1.70;;
70487;SDS011;57976;48.174;16.370;2023-08-31T00:38:05;4.00;;;1.60;;
70487;SDS011;57976;48.174;16.370;2023-08-31T00:40:11;4.00;;;1.60;;
70487;SDS011;57976;48.174;16.370;2023-08-31T00:42:16;4.00;;;1.60;;
70487;SDS011;57976;48.174;16.370;2023-08-31T00:44:21;4.30;;;1.80;;
70487;SDS011;57976;48.174;16.370;2023-08-31T00:46:26;4.40;;;1.90;;
70487;SDS011;57976;48.174;16.370;2023-08-31T00:48:32;4.70;;;1.80;;
70487;SDS011;57976;48.174;16.370;2023-08-31T00:50:40;4.60;;;1.80;;
70487;SDS011;57976;48.174;16.370;2023-08-31T00:52:45;5.50;;;1.80;;
70487;SDS011;57976;48.174;16.370;2023-08-31T00:54:50;5.00;;;2.00;;
70487;SDS011;57976;48.174;16.370;2023-08-31T00:56:56;5.70;;;2.00;;
70487;SDS011;57976;48.174;16.370;2023-08-31T00:59:01;4.80;;;1.90;;
70487;SDS011;57976;48.174;16.370;2023-08-31T01:03:08;4.40;;;1.80;;
70487;SDS011;57976;48.174;16.370;2023-08-31T01:05:18;4.10;;;1.70;;
70487;SDS011;57976;48.174;16.370;2023-08-31T01:07:39;5.10;;;1.90;;
70487;SDS011;57976;48.174;16.370;2023-08-31T01:09:53;4.80;;;1.70;;
70487;SDS011;57976;48.174;16.370;2023-08-31T01:12:07;4.40;;;1.80;;
70487;SDS011;57976;48.174;16.370;2023-08-31T01:14:15;5.10;;;2.00;;
70487;SDS011;57976;48.174;16.370;2023-08-31T01:16:22;5.20;;;1.90;;
70487;SDS011;57976;48.174;16.370;2023-08-31T01:18:32;4.20;;;1.80;;
70487;SDS011;57976;48.174;16.370;2023-08-31T01:20:42;4.90;;;1.90;;
70487;SDS011;57976;48.174;16.370;2023-08-31T01:22:55;5.40;;;1.90;;
70487;SDS011;57976;48.174;16.370;2023-08-31T01:25:03;4.50;;;1.90;;
70487;SDS011;57976;48.174;16.370;2023-08-31T01:27:10;5.10;;;1.90;;
70487;SDS011;57976;48.174;16.370;2023-08-31T01:29:15;4.80;;;1.90;;
70487;SDS011;57976;48.174;16.370;2023-08-31T01:31:20;5.60;;;2.00;;
70487;SDS011;57976;48.174;16.370;2023-08-31T01:33:24;5.50;;;2.20;;
70487;SDS011;57976;48.174;16.370;2023-08-31T01:35:30;5.50;;;2.20;;
70487;SDS011;57976;48.174;16.370;2023-08-31T01:37:42;4.90;;;2.30;;
70487;SDS011;57976;48.174;16.370;2023-08-31T01:39:52;5.30;;;2.10;;
70487;SDS011;57976;48.174;16.370;2023-08-31T01:42:00;4.90;;;2.10;;
70487;SDS011;57976;48.174;16.370;2023-08-31T01:44:06;6.20;;;2.10;;
70487;SDS011;57976;48.174;16.370;2023-08-31T01:46:16;4.90;;;2.10;;
70487;SDS011;57976;48.174;16.370;2023-08-31T01:48:21;5.00;;;2.00;;
70487;SDS011;57976;48.174;16.370;2023-08-31T01:50:26;4.80;;;2.00;;
70487;SDS011;57976;48.174;16.370;2023-08-31T01:52:31;5.00;;;2.10;;
70487;SDS011;57976;48.174;16.370;2023-08-31T01:54:38;5.00;;;2.30;;
70487;SDS011;57976;48.174;16.370;2023-08-31T01:56:43;4.60;;;2.20;;
70487;SDS011;57976;48.174;16.370;2023-08-31T01:58:48;5.80;;;2.20;;
70487;SDS011;57976;48.174;16.370;2023-08-31T02:00:53;5.50;;;2.00;;
70487;SDS011;57976;48.174;16.370;2023-08-31T02:02:58;5.60;;;2.30;;
70487;SDS011;57976;48.174;16.370;2023-08-31T02:05:03;5.00;;;2.20;;
70487;SDS011;57976;48.174;16.370;2023-08-31T02:07:09;5.60;;;2.10;;
70487;SDS011;57976;48.174;16.370;2023-08-31T02:09:14;4.40;;;1.90;;
70487;SDS011;57976;48.174;16.370;2023-08-31T02:11:19;5.20;;;2.30;;
70487;SDS011;57976;48.174;16.370;2023-08-31T02:13:24;5.30;;;2.00;;
70487;SDS011;57976;48.174;16.370;2023-08-31T02:15:28;5.30;;;2.00;;
70487;SDS011;57976;48.174;16.370;2023-08-31T02:17:36;5.10;;;2.20;;
70487;SDS011;57976;48.174;16.370;2023-08-31T02:19:41;5.60;;;1.90;;
70487;SDS011;57976;48.174;16.370;2023-08-31T02:21:46;5.60;;;2.20;;
70487;SDS011;57976;48.174;16.370;2023-08-31T02:23:51;5.60;;;2.00;;
70487;SDS011;57976;48.174;16.370;2023-08-31T02:26:05;5.60;;;2.10;;
70487;SDS011;57976;48.174;16.370;2023-08-31T02:28:09;5.30;;;2.10;;
70487;SDS011;57976;48.174;16.370;2023-08-31T02:30:14;5.20;;;2.10;;
70487;SDS011;57976;48.174;16.370;2023-08-31T02:32:19;5.30;;;2.10;;
70487;SDS011;57976;48.174;16.370;2023-08-31T02:34:24;4.80;;;1.90;;
70487;SDS011;57976;48.174;16.370;2023-08-31T02:36:29;5.40;;;2.20;;
70487;SDS011;57976;48.174;16.370;2023-08-31T02:38:33;4.80;;;2.10;;
70487;SDS011;57976;48.174;16.370;2023-08-31T02:40:38;5.00;;;2.20;;
70487;SDS011;57976;48.174;16.370;2023-08-31T02:42:44;5.20;;;2.00;;
70487;SDS011;57976;48.174;16.370;2023-08-31T02:44:52;5.40;;;2.20;;
70487;SDS011;57976;48.174;16.370;2023-08-31T02:46:58;4.80;;;2.00;;
70487;SDS011;57976;48.174;16.370;2023-08-31T02:49:03;5.80;;;2.10;;
70487;SDS011;57976;48.174;16.370;2023-08-31T02:51:08;4.90;;;2.20;;
70487;SDS011;57976;48.174;16.370;2023-08-31T02:53:13;4.60;;;2.00;;
70487;SDS011;57976;48.174;16.370;2023-08-31T02:55:18;6.70;;;2.00;;
70487;SDS011;57976;48.174;16.370;2023-08-31T02:57:22;5.80;;;2.20;;
70487;SDS011;57976;48.174;16.370;2023-08-31T02:59:27;5.70;;;2.20;;
70487;SDS011;57976;48.174;16.370;2023-08-31T03:01:32;5.00;;;2.20;;
70487;SDS011;57976;48.174;16.370;2023-08-31T03:03:37;4.90;;;2.10;;
70487;SDS011;57976;48.174;16.370;2023-08-31T03:05:42;5.80;;;2.20;;
70487;SDS011;57976;48.174;16.370;2023-08-31T03:07:48;5.10;;;2.10;;
70487;SDS011;57976;48.174;16.370;2023-08-31T03:09:53;5.10;;;2.00;;
70487;SDS011;57976;48.174;16.370;2023-08-31T03:11:57;5.90;;;2.20;;
70487;SDS011;57976;48.174;16.370;2023-08-31T03:14:02;4.90;;;2.00;;
70487;SDS011;57976;48.174;16.370;2023-08-31T03:16:07;5.20;;;2.00;;
70487;SDS011;57976;48.174;16.370;2023-08-31T03:18:12;5.50;;;2.20;;
70487;SDS011;57976;48.174;16.370;2023-08-31T03:20:17;4.90;;;2.20;;
70487;SDS011;57976;48.174;16.370;2023-08-31T03:22:22;4.60;;;2.20;;
70487;SDS011;57976;48.174;16.370;2023-08-31T03:24:27;5.70;;;2.20;;
70487;SDS011;57976;48.174;16.370;2023-08-31T03:26:32;4.80;;;2.20;;
70487;SDS011;57976;48.174;16.370;2023-08-31T03:28:36;5.70;;;2.20;;
70487;SDS011;57976;48.174;16.370;2023-08-31T03:30:43;5.10;;;2.20;;
70487;SDS011;57976;48.174;16.370;2023-08-31T03:32:48;5.40;;;2.10;;
70487;SDS011;57976;48.174;16.370;2023-08-31T03:34:53;5.30;;;2.20;;
70487;SDS011;57976;48.174;16.370;2023-08-31T03:36:58;4.70;;;2.00;;
70487;SDS011;57976;48.174;16.370;2023-08-31T03:39:04;4.90;;;2.40;;
70487;SDS011;57976;48.174;16.370;2023-08-31T03:41:09;5.50;;;2.10;;
70487;SDS011;57976;48.174;16.370;2023-08-31T03:43:15;5.70;;;2.10;;
70487;SDS011;57976;48.174;16.370;2023-08-31T03:45:20;5.30;;;2.00;;
70487;SDS011;57976;48.174;16.370;2023-08-31T03:47:26;4.60;;;2.00;;
70487;SDS011;57976;48.174;16.370;2023-08-31T03:49:30;5.60;;;2.20;;
70487;SDS011;57976;48.174;16.370;2023-08-31T03:51:35;4.60;;;1.90;;
70487;SDS011;57976;48.174;16.370;2023-08-31T03:53:41;5.10;;;2.00;;
70487;SDS011;57976;48.174;16.370;2023-08-31T03:55:45;5.50;;;2.10;;
70487;SDS011;57976;48.174;16.370;2023-08-31T03:57:50;4.50;;;1.90;;
70487;SDS011;57976;48.174;16.370;2023-08-31T03:59:56;5.40;;;2.10;;
70487;SDS011;57976;48.174;16.370;2023-08-31T04:02:01;5.00;;;2.00;;
70487;SDS011;57976;48.174;16.370;2023-08-31T04:04:07;5.50;;;2.10;;
70487;SDS011;57976;48.174;16.370;2023-08-31T04:06:12;4.40;;;1.80;;
70487;SDS011;57976;48.174;16.370;2023-08-31T04:08:17;5.80;;;1.80;;
70487;SDS011;57976;48.174;16.370;2023-08-31T04:10:22;5.10;;;1.90;;
70487;SDS011;57976;48.174;16.370;2023-08-31T04:12:28;4.80;;;2.10;;
70487;SDS011;57976;48.174;16.370;2023-08-31T04:14:34;4.60;;;1.80;;
70487;SDS011;57976;48.174;16.370;2023-08-31T04:16:39;4.40;;;1.80;;
70487;SDS011;57976;48.174;16.370;2023-08-31T04:18:44;5.10;;;1.80;;
70487;SDS011;57976;48.174;16.370;2023-08-31T04:20:50;4.80;;;1.80;;
70487;SDS011;57976;48.174;16.370;2023-08-31T04:22:56;4.50;;;2.00;;
70487;SDS011;57976;48.174;16.370;2023-08-31T04:25:01;5.20;;;2.00;;
70487;SDS011;57976;48.174;16.370;2023-08-31T04:27:06;5.10;;;2.00;;
70487;SDS011;57976;48.174;16.370;2023-08-31T04:29:10;5.40;;;2.40;;
70487;SDS011;57976;48.174;16.370;2023-08-31T04:31:15;4.40;;;1.70;;
70487;SDS011;57976;48.174;16.370;2023-08-31T04:33:20;5.60;;;2.10;;
70487;SDS011;57976;48.174;16.370;2023-08-31T04:35:25;5.20;;;1.90;;
70487;SDS011;57976;48.174;16.370;2023-08-31T04:37:32;5.30;;;2.00;;
70487;SDS011;57976;48.174;16.370;2023-08-31T04:39:37;5.10;;;1.90;;
70487;SDS011;57976;48.174;16.370;2023-08-31T04:41:42;6.50;;;2.40;;
70487;SDS011;57976;48.174;16.370;2023-08-31T04:43:47;4.80;;;1.90;;
70487;SDS011;57976;48.174;16.370;2023-08-31T04:45:52;6.80;;;2.70;;
70487;SDS011;57976;48.174;16.370;2023-08-31T04:47:57;5.50;;;2.00;;
70487;SDS011;57976;48.174;16.370;2023-08-31T04:50:02;5.00;;;2.00;;
70487;SDS011;57976;48.174;16.370;2023-08-31T04:52:07;4.80;;;1.90;;
70487;SDS011;57976;48.174;16.370;2023-08-31T04:54:12;5.60;;;2.00;;
70487;SDS011;57976;48.174;16.370;2023-08-31T04:56:17;4.70;;;1.80;;
70487;SDS011;57976;48.174;16.370;2023-08-31T04:58:22;5.30;;;2.20;;
70487;SDS011;57976;48.174;16.370;2023-08-31T05:00:27;5.50;;;2.40;;
70487;SDS011;57976;48.174;16.370;2023-08-31T05:02:32;6.40;;;2.20;;
70487;SDS011;57976;48.174;16.370;2023-08-31T05:04:37;6.10;;;2.60;;
70487;SDS011;57976;48.174;16.370;2023-08-31T05:06:42;4.90;;;1.90;;
70487;SDS011;57976;48.174;16.370;2023-08-31T05:08:48;4.40;;;1.80;;
70487;SDS011;57976;48.174;16.370;2023-08-31T05:10:52;8.00;;;2.00;;
70487;SDS011;57976;48.174;16.370;2023-08-31T05:12:57;5.60;;;2.40;;
70487;SDS011;57976;48.174;16.370;2023-08-31T05:15:02;4.70;;;1.80;;
70487;SDS011;57976;48.174;16.370;2023-08-31T05:17:08;6.90;;;1.90;;
70487;SDS011;57976;48.174;16.370;2023-08-31T05:19:13;4.80;;;1.90;;
70487;SDS011;57976;48.174;16.370;2023-08-31T05:21:17;5.40;;;2.40;;
70487;SDS011;57976;48.174;16.370;2023-08-31T05:23:22;5.00;;;1.90;;
70487;SDS011;57976;48.174;16.370;2023-08-31T05:25:30;4.60;;;1.60;;
70487;SDS011;57976;48.174;16.370;2023-08-31T05:27:34;4.50;;;1.80;;
70487;SDS011;57976;48.174;16.370;2023-08-31T05:29:40;5.90;;;1.80;;
70487;SDS011;57976;48.174;16.370;2023-08-31T05:31:44;5.50;;;2.00;;
70487;SDS011;57976;48.174;16.370;2023-08-31T05:33:49;5.50;;;1.90;;
70487;SDS011;57976;48.174;16.370;2023-08-31T05:35:54;5.20;;;1.90;;
70487;SDS011;57976;48.174;16.370;2023-08-31T05:37:59;5.90;;;2.10;;
70487;SDS011;57976;48.174;16.370;2023-08-31T05:40:04;5.20;;;2.00;;
70487;SDS011;57976;48.174;16.370;2023-08-31T05:42:12;4.80;;;2.00;;
70487;SDS011;57976;48.174;16.370;2023-08-31T05:44:16;6.30;;;1.80;;
70487;SDS011;57976;48.174;16.370;2023-08-31T05:46:21;5.70;;;2.10;;
70487;SDS011;57976;48.174;16.370;2023-08-31T05:48:26;4.60;;;1.80;;
70487;SDS011;57976;48.174;16.370;2023-08-31T05:50:31;6.00;;;1.80;;
70487;SDS011;57976;48.174;16.370;2023-08-31T05:52:36;5.70;;;1.90;;
70487;SDS011;57976;48.174;16.370;2023-08-31T05:54:40;5.20;;;1.90;;
70487;SDS011;57976;48.174;16.370;2023-08-31T05:56:45;4.20;;;1.70;;
70487;SDS011;57976;48.174;16.370;2023-08-31T05:58:50;4.60;;;1.90;;
70487;SDS011;57976;48.174;16.370;2023-08-31T06:00:56;6.10;;;1.80;;
70487;SDS011;57976;48.174;16.370;2023-08-31T06:03:01;5.50;;;2.10;;
70487;SDS011;57976;48.174;16.370;2023-08-31T06:05:07;5.20;;;2.00;;
70487;SDS011;57976;48.174;16.370;2023-08-31T06:07:12;4.50;;;1.80;;
70487;SDS011;57976;48.174;16.370;2023-08-31T06:09:17;4.40;;;1.70;;
70487;SDS011;57976;48.174;16.370;2023-08-31T06:11:22;5.80;;;1.60;;
70487;SDS011;57976;48.174;16.370;2023-08-31T06:13:27;4.10;;;1.60;;
70487;SDS011;57976;48.174;16.370;2023-08-31T06:15:31;5.00;;;1.70;;
70487;SDS011;57976;48.174;16.370;2023-08-31T06:17:36;4.00;;;1.50;;
70487;SDS011;57976;48.174;16.370;2023-08-31T06:19:41;4.60;;;1.50;;
70487;SDS011;57976;48.174;16.370;2023-08-31T06:21:46;4.50;;;1.90;;
70487;SDS011;57976;48.174;16.370;2023-08-31T06:23:51;4.40;;;1.70;;
70487;SDS011;57976;48.174;16.370;2023-08-31T06:25:56;4.40;;;1.60;;
70487;SDS011;57976;48.174;16.370;2023-08-31T06:28:01;4.60;;;1.60;;
70487;SDS011;57976;48.174;16.370;2023-08-31T06:30:07;6.60;;;1.60;;
70487;SDS011;57976;48.174;16.370;2023-08-31T06:32:13;4.60;;;1.50;;
70487;SDS011;57976;48.174;16.370;2023-08-31T06:34:19;5.50;;;1.70;;
70487;SDS011;57976;48.174;16.370;2023-08-31T06:36:24;4.80;;;1.60;;
70487;SDS011;57976;48.174;16.370;2023-08-31T06:38:29;5.30;;;1.70;;
70487;SDS011;57976;48.174;16.370;2023-08-31T06:40:34;4.10;;;1.50;;
70487;SDS011;57976;48.174;16.370;2023-08-31T06:42:39;7.00;;;1.60;;
70487;SDS011;57976;48.174;16.370;2023-08-31T06:44:45;6.10;;;1.40;;
70487;SDS011;57976;48.174;16.370;2023-08-31T06:46:50;4.40;;;1.40;;
70487;SDS011;57976;48.174;16.370;2023-08-31T06:48:55;5.10;;;1.50;;
70487;SDS011;57976;48.174;16.370;2023-08-31T06:51:00;4.40;;;1.60;;
70487;SDS011;57976;48.174;16.370;2023-08-31T06:53:05;4.10;;;1.50;;
70487;SDS011;57976;48.174;16.370;2023-08-31T06:55:09;4.20;;;1.50;;
70487;SDS011;57976;48.174;16.370;2023-08-31T06:57:14;4.70;;;1.50;;
70487;SDS011;57976;48.174;16.370;2023-08-31T06:59:19;4.90;;;1.60;;
70487;SDS011;57976;48.174;16.370;2023-08-31T07:01:27;4.40;;;1.60;;
70487;SDS011;57976;48.174;16.370;2023-08-31T07:03:32;4.60;;;1.60;;
70487;SDS011;57976;48.174;16.370;2023-08-31T07:05:41;4.00;;;1.50;;
70487;SDS011;57976;48.174;16.370;2023-08-31T07:07:47;4.60;;;1.70;;
70487;SDS011;57976;48.174;16.370;2023-08-31T07:09:51;4.10;;;1.50;;
70487;SDS011;57976;48.174;16.370;2023-08-31T07:11:56;5.20;;;1.70;;
70487;SDS011;57976;48.174;16.370;2023-08-31T07:14:01;4.50;;;1.60;;
70487;SDS011;57976;48.174;16.370;2023-08-31T07:16:09;4.60;;;1.70;;
70487;SDS011;57976;48.174;16.370;2023-08-31T07:18:14;5.20;;;1.70;;
70487;SDS011;57976;48.174;16.370;2023-08-31T07:20:19;4.50;;;1.70;;
70487;SDS011;57976;48.174;16.370;2023-08-31T07:22:24;4.60;;;1.60;;
70487;SDS011;57976;48.174;16.370;2023-08-31T07:24:29;5.50;;;1.90;;
70487;SDS011;57976;48.174;16.370;2023-08-31T07:26:34;5.10;;;1.90;;
70487;SDS011;57976;48.174;16.370;2023-08-31T07:28:38;4.90;;;1.70;;
70487;SDS011;57976;48.174;16.370;2023-08-31T07:30:43;5.30;;;1.90;;
70487;SDS011;57976;48.174;16.370;2023-08-31T07:32:48;4.10;;;1.80;;
70487;SDS011;57976;48.174;16.370;2023-08-31T07:34:54;3.80;;;1.50;;
70487;SDS011;57976;48.174;16.370;2023-08-31T07:36:58;4.60;;;1.70;;
70487;SDS011;57976;48.174;16.370;2023-08-31T07:39:03;5.50;;;2.00;;
70487;SDS011;57976;48.174;16.370;2023-08-31T07:41:08;4.80;;;1.60;;
70487;SDS011;57976;48.174;16.370;2023-08-31T07:43:13;4.90;;;1.80;;
70487;SDS011;57976;48.174;16.370;2023-08-31T07:45:18;5.50;;;1.80;;
70487;SDS011;57976;48.174;16.370;2023-08-31T07:47:23;4.30;;;1.90;;
70487;SDS011;57976;48.174;16.370;2023-08-31T07:49:28;5.00;;;1.80;;
70487;SDS011;57976;48.174;16.370;2023-08-31T07:51:33;5.60;;;2.10;;
70487;SDS011;57976;48.174;16.370;2023-08-31T07:53:38;4.90;;;2.00;;
70487;SDS011;57976;48.174;16.370;2023-08-31T07:55:50;4.70;;;1.80;;
70487;SDS011;57976;48.174;16.370;2023-08-31T07:57:55;6.40;;;2.10;;
70487;SDS011;57976;48.174;16.370;2023-08-31T08:00:00;6.70;;;2.10;;
70487;SDS011;57976;48.174;16.370;2023-08-31T08:02:14;5.50;;;2.00;;
70487;SDS011;57976;48.174;16.370;2023-08-31T08:04:19;5.90;;;2.00;;
70487;SDS011;57976;48.174;16.370;2023-08-31T08:06:26;5.20;;;2.20;;
70487;SDS011;57976;48.174;16.370;2023-08-31T08:08:31;5.90;;;2.00;;
70487;SDS011;57976;48.174;16.370;2023-08-31T08:10:36;6.50;;;2.30;;
70487;SDS011;57976;48.174;16.370;2023-08-31T08:12:41;5.10;;;1.90;;
70487;SDS011;57976;48.174;16.370;2023-08-31T08:14:46;5.40;;;1.80;;
70487;SDS011;57976;48.174;16.370;2023-08-31T08:16:51;5.40;;;2.00;;
70487;SDS011;57976;48.174;16.370;2023-08-31T08:19:00;4.80;;;2.10;;
70487;SDS011;57976;48.174;16.370;2023-08-31T08:21:05;5.70;;;2.10;;
70487;SDS011;57976;48.174;16.370;2023-08-31T08:23:10;5.80;;;2.20;;
70487;SDS011;57976;48.174;16.370;2023-08-31T08:25:16;5.50;;;2.00;;
70487;SDS011;57976;48.174;16.370;2023-08-31T08:27:22;6.40;;;2.30;;
70487;SDS011;57976;48.174;16.370;2023-08-31T08:29:27;5.80;;;2.20;;
70487;SDS011;57976;48.174;16.370;2023-08-31T08:31:32;5.30;;;2.40;;
70487;SDS011;57976;48.174;16.370;2023-08-31T08:33:37;6.20;;;2.50;;
70487;SDS011;57976;48.174;16.370;2023-08-31T08:35:42;4.80;;;2.20;;
70487;SDS011;57976;48.174;16.370;2023-08-31T08:37:47;5.50;;;2.10;;
70487;SDS011;57976;48.174;16.370;2023-08-31T08:39:53;5.40;;;2.50;;
70487;SDS011;57976;48.174;16.370;2023-08-31T08:41:58;5.00;;;2.30;;
70487;SDS011;57976;48.174;16.370;2023-08-31T08:44:07;4.70;;;2.00;;
70487;SDS011;57976;48.174;16.370;2023-08-31T08:46:12;4.40;;;1.70;;
70487;SDS011;57976;48.174;16.370;2023-08-31T08:48:18;4.20;;;1.60;;
70487;SDS011;57976;48.174;16.370;2023-08-31T08:50:26;5.00;;;1.70;;
70487;SDS011;57976;48.174;16.370;2023-08-31T08:52:31;4.40;;;1.80;;
70487;SDS011;57976;48.174;16.370;2023-08-31T08:54:36;4.40;;;1.70;;
70487;SDS011;57976;48.174;16.370;2023-08-31T08:56:42;4.40;;;1.70;;
70487;SDS011;57976;48.174;16.370;2023-08-31T08:58:47;4.70;;;1.70;;
70487;SDS011;57976;48.174;16.370;2023-08-31T09:00:53;4.40;;;1.60;;
70487;SDS011;57976;48.174;16.370;2023-08-31T09:02:59;4.30;;;1.60;;
70487;SDS011;57976;48.174;16.370;2023-08-31T09:05:05;4.40;;;1.40;;
70487;SDS011;57976;48.174;16.370;2023-08-31T09:07:11;3.60;;;1.30;;
70487;SDS011;57976;48.174;16.370;2023-08-31T09:09:15;4.70;;;1.30;;
70487;SDS011;57976;48.174;16.370;2023-08-31T09:11:20;4.00;;;1.40;;
70487;SDS011;57976;48.174;16.370;2023-08-31T09:13:27;5.50;;;1.30;;
70487;SDS011;57976;48.174;16.370;2023-08-31T09:15:37;4.30;;;1.30;;
70487;SDS011;57976;48.174;16.370;2023-08-31T09:17:44;4.70;;;1.40;;
70487;SDS011;57976;48.174;16.370;2023-08-31T09:19:49;3.70;;;1.20;;
70487;SDS011;57976;48.174;16.370;2023-08-31T09:22:03;3.90;;;1.20;;
70487;SDS011;57976;48.174;16.370;2023-08-31T09:24:08;4.30;;;1.20;;
70487;SDS011;57976;48.174;16.370;2023-08-31T09:26:14;3.50;;;1.10;;
70487;SDS011;57976;48.174;16.370;2023-08-31T09:28:24;3.50;;;1.00;;
70487;SDS011;57976;48.174;16.370;2023-08-31T09:30:30;3.60;;;1.30;;
70487;SDS011;57976;48.174;16.370;2023-08-31T09:32:39;3.80;;;1.10;;
70487;SDS011;57976;48.174;16.370;2023-08-31T09:34:44;6.70;;;2.40;;
70487;SDS011;57976;48.174;16.370;2023-08-31T09:36:52;3.60;;;1.50;;
70487;SDS011;57976;48.174;16.370;2023-08-31T09:38:58;3.80;;;1.40;;
70487;SDS011;57976;48.174;16.370;2023-08-31T09:41:06;4.90;;;1.60;;
70487;SDS011;57976;48.174;16.370;2023-08-31T09:43:11;3.00;;;1.10;;
70487;SDS011;57976;48.174;16.370;2023-08-31T09:45:26;4.70;;;1.50;;
70487;SDS011;57976;48.174;16.370;2023-08-31T09:47:48;4.50;;;1.40;;
70487;SDS011;57976;48.174;16.370;2023-08-31T09:49:54;6.60;;;1.30;;
70487;SDS011;57976;48.174;16.370;2023-08-31T09:51:59;3.90;;;1.30;;
70487;SDS011;57976;48.174;16.370;2023-08-31T09:54:08;3.80;;;1.20;;
70487;SDS011;57976;48.174;16.370;2023-08-31T09:56:18;4.10;;;1.30;;
70487;SDS011;57976;48.174;16.370;2023-08-31T09:58:26;3.40;;;1.10;;
70487;SDS011;57976;48.174;16.370;2023-08-31T10:00:35;3.80;;;1.30;;
70487;SDS011;57976;48.174;16.370;2023-08-31T10:02:40;3.60;;;1.30;;
70487;SDS011;57976;48.174;16.370;2023-08-31T10:04:45;3.60;;;1.30;;
70487;SDS011;57976;48.174;16.370;2023-08-31T10:06:50;3.90;;;1.40;;
70487;SDS011;57976;48.174;16.370;2023-08-31T10:08:55;3.40;;;1.10;;
70487;SDS011;57976;48.174;16.370;2023-08-31T10:11:01;3.80;;;1.30;;
70487;SDS011;57976;48.174;16.370;2023-08-31T10:13:09;3.60;;;1.20;;
70487;SDS011;57976;48.174;16.370;2023-08-31T10:15:18;2.70;;;1.00;;
70487;SDS011;57976;48.174;16.370;2023-08-31T10:17:23;3.70;;;1.30;;
70487;SDS011;57976;48.174;16.370;2023-08-31T10:19:29;3.20;;;1.20;;
70487;SDS011;57976;48.174;16.370;2023-08-31T10:21:34;3.30;;;1.10;;
70487;SDS011;57976;48.174;16.370;2023-08-31T10:23:45;3.90;;;1.20;;
70487;SDS011;57976;48.174;16.370;2023-08-31T10:26:05;4.00;;;1.30;;
70487;SDS011;57976;48.174;16.370;2023-08-31T10:28:17;3.40;;;1.20;;
70487;SDS011;57976;48.174;16.370;2023-08-31T10:30:26;3.80;;;1.10;;
70487;SDS011;57976;48.174;16.370;2023-08-31T10:32:31;2.60;;;1.00;;
70487;SDS011;57976;48.174;16.370;2023-08-31T10:34:36;4.00;;;1.20;;
70487;SDS011;57976;48.174;16.370;2023-08-31T10:36:43;3.70;;;1.10;;
70487;SDS011;57976;48.174;16.370;2023-08-31T10:39:01;3.20;;;1.00;;
70487;SDS011;57976;48.174;16.370;2023-08-31T10:41:21;3.20;;;1.10;;
70487;SDS011;57976;48.174;16.370;2023-08-31T10:43:26;4.40;;;1.10;;
70487;SDS011;57976;48.174;16.370;2023-08-31T10:45:49;3.60;;;1.10;;
70487;SDS011;57976;48.174;16.370;2023-08-31T10:47:55;3.90;;;1.20;;
70487;SDS011;57976;48.174;16.370;2023-08-31T10:50:17;4.40;;;1.40;;
70487;SDS011;57976;48.174;16.370;2023-08-31T10:52:26;3.90;;;1.40;;
70487;SDS011;57976;48.174;16.370;2023-08-31T10:54:45;4.50;;;1.40;;
70487;SDS011;57976;48.174;16.370;2023-08-31T10:56:54;3.80;;;1.30;;
70487;SDS011;57976;48.174;16.370;2023-08-31T10:59:05;4.50;;;1.50;;
70487;SDS011;57976;48.174;16.370;2023-08-31T11:01:10;4.70;;;1.40;;
70487;SDS011;57976;48.174;16.370;2023-08-31T11:03:16;4.30;;;1.70;;
70487;SDS011;57976;48.174;16.370;2023-08-31T11:05:21;4.40;;;1.70;;
70487;SDS011;57976;48.174;16.370;2023-08-31T11:07:27;4.20;;;1.20;;
70487;SDS011;57976;48.174;16.370;2023-08-31T11:09:32;4.00;;;1.40;;
70487;SDS011;57976;48.174;16.370;2023-08-31T11:11:38;3.80;;;1.30;;
70487;SDS011;57976;48.174;16.370;2023-08-31T11:13:44;5.20;;;1.40;;
70487;SDS011;57976;48.174;16.370;2023-08-31T11:15:49;3.70;;;1.20;;
70487;SDS011;57976;48.174;16.370;2023-08-31T11:17:54;4.50;;;1.80;;
70487;SDS011;57976;48.174;16.370;2023-08-31T11:20:00;4.20;;;1.40;;
70487;SDS011;57976;48.174;16.370;2023-08-31T11:22:05;4.30;;;1.40;;
70487;SDS011;57976;48.174;16.370;2023-08-31T11:24:11;4.60;;;1.60;;
70487;SDS011;57976;48.174;16.370;2023-08-31T11:26:16;3.60;;;1.30;;
70487;SDS011;57976;48.174;16.370;2023-08-31T11:28:22;3.90;;;1.20;;
70487;SDS011;57976;48.174;16.370;2023-08-31T11:30:27;4.40;;;1.40;;
70487;SDS011;57976;48.174;16.370;2023-08-31T11:32:33;3.80;;;1.40;;
70487;SDS011;57976;48.174;16.370;2023-08-31T11:34:41;3.80;;;1.30;;
70487;SDS011;57976;48.174;16.370;2023-08-31T11:36:49;4.50;;;1.30;;
70487;SDS011;57976;48.174;16.370;2023-08-31T11:38:54;4.20;;;1.50;;
70487;SDS011;57976;48.174;16.370;2023-08-31T11:40:59;4.70;;;1.70;;
70487;SDS011;57976;48.174;16.370;2023-08-31T11:43:05;4.50;;;1.60;;
70487;SDS011;57976;48.174;16.370;2023-08-31T11:45:11;4.10;;;1.40;;
70487;SDS011;57976;48.174;16.370;2023-08-31T11:47:18;3.90;;;1.40;;
70487;SDS011;57976;48.174;16.370;2023-08-31T11:49:24;4.10;;;1.30;;
70487;SDS011;57976;48.174;16.370;2023-08-31T11:51:31;3.90;;;1.50;;
70487;SDS011;57976;48.174;16.370;2023-08-31T11:53:37;4.60;;;1.70;;
70487;SDS011;57976;48.174;16.370;2023-08-31T11:55:50;4.40;;;1.40;;
70487;SDS011;57976;48.174;16.370;2023-08-31T11:57:55;3.90;;;1.50;;
70487;SDS011;57976;48.174;16.370;2023-08-31T12:00:00;3.50;;;1.30;;
70487;SDS011;57976;48.174;16.370;2023-08-31T12:02:08;4.30;;;1.40;;
70487;SDS011;57976;48.174;16.370;2023-08-31T12:04:13;4.00;;;1.50;;
70487;SDS011;57976;48.174;16.370;2023-08-31T12:06:19;3.90;;;1.40;;
70487;SDS011;57976;48.174;16.370;2023-08-31T12:08:27;4.10;;;1.50;;
70487;SDS011;57976;48.174;16.370;2023-08-31T12:10:32;4.60;;;1.50;;
70487;SDS011;57976;48.174;16.370;2023-08-31T12:12:45;3.60;;;1.30;;
70487;SDS011;57976;48.174;16.370;2023-08-31T12:14:53;4.40;;;1.60;;
70487;SDS011;57976;48.174;16.370;2023-08-31T12:17:01;4.90;;;1.60;;
70487;SDS011;57976;48.174;16.370;2023-08-31T12:19:09;3.80;;;1.40;;
70487;SDS011;57976;48.174;16.370;2023-08-31T12:21:14;4.20;;;1.40;;
70487;SDS011;57976;48.174;16.370;2023-08-31T12:23:22;4.50;;;1.40;;
70487;SDS011;57976;48.174;16.370;2023-08-31T12:25:26;4.20;;;1.50;;
70487;SDS011;57976;48.174;16.370;2023-08-31T12:27:31;5.00;;;1.50;;
70487;SDS011;57976;48.174;16.370;2023-08-31T12:29:36;4.90;;;1.60;;